Etusivu
METAR-TAF:

METAR-TAF

Lentoasemat :

Xi’an Xianyangin kansainvälinen lentoasema

Xi’an, Kiina

Leveyspiiri: 34-26N, Pituuspiiri: 108-45E, korkeus merenpinnasta: 479 m

Tämänhetkinen sää

Tämä raportti tehtiin 1 tunti ja 3 minuuttia sitten, kello 01.00 UTC
Tuuli 4 kn pohjoisesta/koillisesta
Lämpötila 18°C
Kosteus 73%
Ilmanpaine 1015 hPa
Näkyvyys: 7000 m

METAR: ZLXY 170100Z 02002MPS 7000 NSC 18/13 Q1015 NOSIG

Aika: 10:03 (02:03 UTC)

Sääennuste

Tämä raportti tehtiin 5 tuntia ja 0 minuuttia sitten, kello 21.03 UTC
Ennuste voimassa 17. päivästä klo 00 UTC - 17. päivään klo 24 UTC
Tuuli 6 kn idästä/koillisesta
Näkyvyys: 5000 m
usvaa,

TAF: ZLXY 162103Z 1700/1724 06003MPS 5000 HZ NSC TX26/1708Z TN16/1722Z

Säähavainnot ja -ennusteet yli 4000 lentoasemalta (METAR- ja TAF-raportit).

Käytössä olevat sääasemat on merkitty karttaan keltaisilla ja punaisilla pisteillä.

Aseta hiiri pisteen päälle nähdäksesi sääaseman nimen.

Klikkaa sitten nähdäksesi säähavainnot ja -ennusteet.

Kartan vaihtaminen: klikkaa mustalla rastilla varustettuja vihreitä pisteitä, niin voit zoomata sisään; viivalla varustettua vihreää pistettä, niin voit zoomata ulos tai vihreitä nuolia, niin pääset viereisille kartoille.


METAR-TAF: